sensor_id;sensor_type;location;lat;lon;timestamp;temperature;humidity
15105;DHT22;7653;48.994;9.212;2023-07-13T01:53:32;19.50;20.70
15105;DHT22;7653;48.994;9.212;2023-07-13T01:55:58;19.50;20.20
15105;DHT22;7653;48.994;9.212;2023-07-13T01:58:23;19.40;20.80
15105;DHT22;7653;48.994;9.212;2023-07-13T02:00:49;19.30;20.70
15105;DHT22;7653;48.994;9.212;2023-07-13T02:03:16;19.30;20.70
15105;DHT22;7653;48.994;9.212;2023-07-13T02:05:44;19.20;21.10
15105;DHT22;7653;48.994;9.212;2023-07-13T02:08:10;19.20;21.20
15105;DHT22;7653;48.994;9.212;2023-07-13T02:10:36;19.30;20.70
15105;DHT22;7653;48.994;9.212;2023-07-13T02:13:05;19.30;20.70
15105;DHT22;7653;48.994;9.212;2023-07-13T02:15:31;19.30;20.70
15105;DHT22;7653;48.994;9.212;2023-07-13T02:17:57;19.30;20.70
15105;DHT22;7653;48.994;9.212;2023-07-13T02:20:24;19.30;20.70
15105;DHT22;7653;48.994;9.212;2023-07-13T02:22:50;19.20;21.20
15105;DHT22;7653;48.994;9.212;2023-07-13T02:25:16;19.20;21.40
15105;DHT22;7653;48.994;9.212;2023-07-13T02:27:41;19.10;21.60
15105;DHT22;7653;48.994;9.212;2023-07-13T02:30:10;19.10;21.90
15105;DHT22;7653;48.994;9.212;2023-07-13T02:32:36;19.00;22.20
15105;DHT22;7653;48.994;9.212;2023-07-13T02:35:02;19.00;22.50
15105;DHT22;7653;48.994;9.212;2023-07-13T02:37:28;18.90;22.50
15105;DHT22;7653;48.994;9.212;2023-07-13T02:39:55;18.90;22.80
15105;DHT22;7653;48.994;9.212;2023-07-13T02:42:20;18.80;22.90
15105;DHT22;7653;48.994;9.212;2023-07-13T02:44:46;18.80;22.90
15105;DHT22;7653;48.994;9.212;2023-07-13T02:47:12;18.80;22.90
15105;DHT22;7653;48.994;9.212;2023-07-13T02:49:38;18.80;24.50
15105;DHT22;7653;48.994;9.212;2023-07-13T02:52:04;18.70;25.80
15105;DHT22;7653;48.994;9.212;2023-07-13T02:54:30;18.60;26.90
15105;DHT22;7653;48.994;9.212;2023-07-13T02:56:55;18.50;25.60
15105;DHT22;7653;48.994;9.212;2023-07-13T02:59:21;18.50;27.90
15105;DHT22;7653;48.994;9.212;2023-07-13T03:01:47;18.30;28.30
15105;DHT22;7653;48.994;9.212;2023-07-13T03:04:12;18.30;27.70
15105;DHT22;7653;48.994;9.212;2023-07-13T03:06:38;18.20;28.90
15105;DHT22;7653;48.994;9.212;2023-07-13T03:09:04;18.00;31.30
15105;DHT22;7653;48.994;9.212;2023-07-13T03:11:30;17.80;34.70
15105;DHT22;7653;48.994;9.212;2023-07-13T03:13:56;17.50;36.60
15105;DHT22;7653;48.994;9.212;2023-07-13T03:16:22;17.40;37.30
15105;DHT22;7653;48.994;9.212;2023-07-13T03:18:47;17.20;40.00
15105;DHT22;7653;48.994;9.212;2023-07-13T03:21:13;17.10;39.90
15105;DHT22;7653;48.994;9.212;2023-07-13T03:23:39;16.90;41.60
15105;DHT22;7653;48.994;9.212;2023-07-13T03:26:10;16.90;41.50
15105;DHT22;7653;48.994;9.212;2023-07-13T03:28:37;16.70;43.20
15105;DHT22;7653;48.994;9.212;2023-07-13T03:31:08;16.60;44.30
15105;DHT22;7653;48.994;9.212;2023-07-13T03:33:35;16.30;46.30
15105;DHT22;7653;48.994;9.212;2023-07-13T03:36:02;16.00;49.30
15105;DHT22;7653;48.994;9.212;2023-07-13T03:38:28;15.90;50.70
15105;DHT22;7653;48.994;9.212;2023-07-13T03:40:54;15.90;52.50
15105;DHT22;7653;48.994;9.212;2023-07-13T03:43:19;15.60;52.80
15105;DHT22;7653;48.994;9.212;2023-07-13T03:45:46;15.50;54.70
15105;DHT22;7653;48.994;9.212;2023-07-13T03:48:12;15.50;55.60
15105;DHT22;7653;48.994;9.212;2023-07-13T03:50:38;15.60;55.00
15105;DHT22;7653;48.994;9.212;2023-07-13T03:53:04;15.70;53.90
15105;DHT22;7653;48.994;9.212;2023-07-13T03:55:29;15.60;54.30
15105;DHT22;7653;48.994;9.212;2023-07-13T03:58:05;15.80;54.20
15105;DHT22;7653;48.994;9.212;2023-07-13T04:00:45;15.80;54.30
15105;DHT22;7653;48.994;9.212;2023-07-13T04:03:11;15.90;54.10
15105;DHT22;7653;48.994;9.212;2023-07-13T04:05:36;16.00;52.40
15105;DHT22;7653;48.994;9.212;2023-07-13T04:08:02;16.00;52.00
15105;DHT22;7653;48.994;9.212;2023-07-13T04:10:28;16.20;52.10
15105;DHT22;7653;48.994;9.212;2023-07-13T04:12:54;16.40;51.20
15105;DHT22;7653;48.994;9.212;2023-07-13T04:15:19;16.30;51.20
15105;DHT22;7653;48.994;9.212;2023-07-13T04:17:45;16.30;51.20
15105;DHT22;7653;48.994;9.212;2023-07-13T04:20:10;16.30;51.20
15105;DHT22;7653;48.994;9.212;2023-07-13T04:22:36;16.20;51.50
15105;DHT22;7653;48.994;9.212;2023-07-13T04:25:02;16.20;52.30
15105;DHT22;7653;48.994;9.212;2023-07-13T04:27:27;16.20;52.80
15105;DHT22;7653;48.994;9.212;2023-07-13T04:29:54;16.10;53.40
15105;DHT22;7653;48.994;9.212;2023-07-13T04:32:19;16.10;55.20
15105;DHT22;7653;48.994;9.212;2023-07-13T04:34:45;15.90;56.50
15105;DHT22;7653;48.994;9.212;2023-07-13T04:37:11;15.90;58.90
15105;DHT22;7653;48.994;9.212;2023-07-13T04:39:36;15.90;59.30
15105;DHT22;7653;48.994;9.212;2023-07-13T04:42:03;16.00;60.60
15105;DHT22;7653;48.994;9.212;2023-07-13T04:44:29;15.90;60.50
15105;DHT22;7653;48.994;9.212;2023-07-13T04:46:54;16.00;60.40
15105;DHT22;7653;48.994;9.212;2023-07-13T04:49:20;16.00;60.60
15105;DHT22;7653;48.994;9.212;2023-07-13T04:51:46;16.00;61.30
15105;DHT22;7653;48.994;9.212;2023-07-13T04:54:11;16.00;60.60
15105;DHT22;7653;48.994;9.212;2023-07-13T04:56:37;16.00;60.50
15105;DHT22;7653;48.994;9.212;2023-07-13T04:59:02;15.90;61.30
15105;DHT22;7653;48.994;9.212;2023-07-13T05:01:28;15.90;62.40
15105;DHT22;7653;48.994;9.212;2023-07-13T05:03:54;15.70;63.80
15105;DHT22;7653;48.994;9.212;2023-07-13T05:06:23;15.60;65.10
15105;DHT22;7653;48.994;9.212;2023-07-13T05:08:48;15.80;65.90
15105;DHT22;7653;48.994;9.212;2023-07-13T05:11:14;16.10;66.00
15105;DHT22;7653;48.994;9.212;2023-07-13T05:13:39;16.40;63.70
15105;DHT22;7653;48.994;9.212;2023-07-13T05:16:06;16.70;59.40
15105;DHT22;7653;48.994;9.212;2023-07-13T05:18:33;17.10;56.80
15105;DHT22;7653;48.994;9.212;2023-07-13T05:21:02;17.20;52.80
15105;DHT22;7653;48.994;9.212;2023-07-13T05:23:28;17.40;52.50
15105;DHT22;7653;48.994;9.212;2023-07-13T05:25:54;17.40;51.70
15105;DHT22;7653;48.994;9.212;2023-07-13T05:28:20;17.40;52.30
15105;DHT22;7653;48.994;9.212;2023-07-13T05:30:47;17.50;52.30
15105;DHT22;7653;48.994;9.212;2023-07-13T05:33:13;17.60;52.50
15105;DHT22;7653;48.994;9.212;2023-07-13T05:35:38;17.60;53.60
15105;DHT22;7653;48.994;9.212;2023-07-13T05:38:04;17.90;47.70
15105;DHT22;7653;48.994;9.212;2023-07-13T05:40:30;18.10;44.40
15105;DHT22;7653;48.994;9.212;2023-07-13T05:42:55;18.20;43.50
15105;DHT22;7653;48.994;9.212;2023-07-13T05:45:21;18.10;49.00
15105;DHT22;7653;48.994;9.212;2023-07-13T05:47:47;18.10;50.00
15105;DHT22;7653;48.994;9.212;2023-07-13T05:50:12;17.90;51.80
15105;DHT22;7653;48.994;9.212;2023-07-13T05:52:38;18.10;48.60
15105;DHT22;7653;48.994;9.212;2023-07-13T05:55:04;18.20;47.50
15105;DHT22;7653;48.994;9.212;2023-07-13T05:57:30;18.30;48.10
15105;DHT22;7653;48.994;9.212;2023-07-13T05:59:57;18.40;47.20
15105;DHT22;7653;48.994;9.212;2023-07-13T06:02:22;18.70;44.70
15105;DHT22;7653;48.994;9.212;2023-07-13T06:04:48;18.80;44.70
15105;DHT22;7653;48.994;9.212;2023-07-13T06:07:14;19.00;44.00
15105;DHT22;7653;48.994;9.212;2023-07-13T06:09:40;19.10;42.00
15105;DHT22;7653;48.994;9.212;2023-07-13T06:12:06;19.30;40.10
15105;DHT22;7653;48.994;9.212;2023-07-13T06:14:32;18.60;42.90
15105;DHT22;7653;48.994;9.212;2023-07-13T06:16:58;18.40;42.30
15105;DHT22;7653;48.994;9.212;2023-07-13T06:19:23;18.40;43.50
15105;DHT22;7653;48.994;9.212;2023-07-13T06:21:49;18.60;38.40
15105;DHT22;7653;48.994;9.212;2023-07-13T06:24:14;19.10;37.20
15105;DHT22;7653;48.994;9.212;2023-07-13T06:26:40;19.10;37.50
15105;DHT22;7653;48.994;9.212;2023-07-13T06:29:06;18.70;38.30
15105;DHT22;7653;48.994;9.212;2023-07-13T06:31:31;18.80;38.50
15105;DHT22;7653;48.994;9.212;2023-07-13T06:33:57;19.20;36.70
15105;DHT22;7653;48.994;9.212;2023-07-13T06:36:23;19.30;35.50
15105;DHT22;7653;48.994;9.212;2023-07-13T06:38:48;18.90;37.40
15105;DHT22;7653;48.994;9.212;2023-07-13T06:41:14;18.60;38.30
15105;DHT22;7653;48.994;9.212;2023-07-13T06:43:39;18.70;38.40
15105;DHT22;7653;48.994;9.212;2023-07-13T06:46:06;18.70;38.40
15105;DHT22;7653;48.994;9.212;2023-07-13T06:48:31;19.10;33.50
15105;DHT22;7653;48.994;9.212;2023-07-13T06:50:57;19.60;31.20
15105;DHT22;7653;48.994;9.212;2023-07-13T06:53:23;19.60;29.80
15105;DHT22;7653;48.994;9.212;2023-07-13T06:55:49;19.80;28.70
15105;DHT22;7653;48.994;9.212;2023-07-13T06:58:16;20.00;28.30
15105;DHT22;7653;48.994;9.212;2023-07-13T07:00:42;19.90;30.30
15105;DHT22;7653;48.994;9.212;2023-07-13T07:03:08;20.00;29.90
15105;DHT22;7653;48.994;9.212;2023-07-13T07:05:33;20.20;26.30
15105;DHT22;7653;48.994;9.212;2023-07-13T07:07:59;20.30;25.50
15105;DHT22;7653;48.994;9.212;2023-07-13T07:10:25;20.50;24.80
15105;DHT22;7653;48.994;9.212;2023-07-13T07:12:51;20.60;24.80
15105;DHT22;7653;48.994;9.212;2023-07-13T07:15:17;20.70;23.60
15105;DHT22;7653;48.994;9.212;2023-07-13T07:17:43;20.70;24.10
15105;DHT22;7653;48.994;9.212;2023-07-13T07:20:09;20.70;24.40
15105;DHT22;7653;48.994;9.212;2023-07-13T07:22:35;20.80;25.20
15105;DHT22;7653;48.994;9.212;2023-07-13T07:25:01;20.90;26.00
15105;DHT22;7653;48.994;9.212;2023-07-13T07:27:27;21.20;24.00
15105;DHT22;7653;48.994;9.212;2023-07-13T07:29:53;21.40;22.20
15105;DHT22;7653;48.994;9.212;2023-07-13T07:32:19;21.60;22.30
15105;DHT22;7653;48.994;9.212;2023-07-13T07:34:45;21.70;19.50
15105;DHT22;7653;48.994;9.212;2023-07-13T07:37:12;21.40;19.80
15105;DHT22;7653;48.994;9.212;2023-07-13T07:39:38;21.40;19.30
15105;DHT22;7653;48.994;9.212;2023-07-13T07:42:04;21.50;21.50
15105;DHT22;7653;48.994;9.212;2023-07-13T07:44:31;21.70;19.60
15105;DHT22;7653;48.994;9.212;2023-07-13T07:46:57;21.80;18.90
15105;DHT22;7653;48.994;9.212;2023-07-13T07:49:23;21.90;18.90
15105;DHT22;7653;48.994;9.212;2023-07-13T07:51:49;22.00;17.60
15105;DHT22;7653;48.994;9.212;2023-07-13T07:54:15;22.20;18.30
15105;DHT22;7653;48.994;9.212;2023-07-13T07:56:41;22.10;17.00
15105;DHT22;7653;48.994;9.212;2023-07-13T07:59:07;22.10;16.00
15105;DHT22;7653;48.994;9.212;2023-07-13T08:01:33;22.10;16.60
15105;DHT22;7653;48.994;9.212;2023-07-13T08:03:59;21.90;16.70
15105;DHT22;7653;48.994;9.212;2023-07-13T08:06:24;21.50;17.10
15105;DHT22;7653;48.994;9.212;2023-07-13T08:08:50;21.80;17.10
15105;DHT22;7653;48.994;9.212;2023-07-13T08:11:16;21.90;14.50
15105;DHT22;7653;48.994;9.212;2023-07-13T08:13:42;21.80;15.50
15105;DHT22;7653;48.994;9.212;2023-07-13T08:16:08;22.10;14.10
15105;DHT22;7653;48.994;9.212;2023-07-13T08:18:34;22.00;12.80
15105;DHT22;7653;48.994;9.212;2023-07-13T08:21:04;21.60;12.50
15105;DHT22;7653;48.994;9.212;2023-07-13T08:23:30;21.70;13.80
15105;DHT22;7653;48.994;9.212;2023-07-13T08:25:56;22.10;11.00
15105;DHT22;7653;48.994;9.212;2023-07-13T08:28:22;22.20;10.70
15105;DHT22;7653;48.994;9.212;2023-07-13T08:30:48;21.70;8.60
15105;DHT22;7653;48.994;9.212;2023-07-13T08:33:18;21.80;9.50
15105;DHT22;7653;48.994;9.212;2023-07-13T08:35:48;22.10;9.70
15105;DHT22;7653;48.994;9.212;2023-07-13T08:38:16;22.20;9.60
15105;DHT22;7653;48.994;9.212;2023-07-13T08:40:42;22.40;8.50
15105;DHT22;7653;48.994;9.212;2023-07-13T08:43:20;22.50;7.90
15105;DHT22;7653;48.994;9.212;2023-07-13T08:48:35;22.60;9.10
15105;DHT22;7653;48.994;9.212;2023-07-13T08:53:56;22.40;9.20
15105;DHT22;7653;48.994;9.212;2023-07-13T08:56:27;22.70;9.40
15105;DHT22;7653;48.994;9.212;2023-07-13T08:58:57;22.90;10.30
15105;DHT22;7653;48.994;9.212;2023-07-13T09:04:35;22.30;9.80
15105;DHT22;7653;48.994;9.212;2023-07-13T09:17:56;23.90;7.90
15105;DHT22;7653;48.994;9.212;2023-07-13T09:20:35;23.60;7.50
15105;DHT22;7653;48.994;9.212;2023-07-13T09:23:09;23.10;9.40
15105;DHT22;7653;48.994;9.212;2023-07-13T09:25:37;23.40;8.80
15105;DHT22;7653;48.994;9.212;2023-07-13T09:31:09;23.20;8.40
15105;DHT22;7653;48.994;9.212;2023-07-13T09:33:32;23.60;7.80
15105;DHT22;7653;48.994;9.212;2023-07-13T09:36:01;23.30;7.90
15105;DHT22;7653;48.994;9.212;2023-07-13T09:38:29;23.30;7.90
15105;DHT22;7653;48.994;9.212;2023-07-13T09:44:13;23.90;7.70
15105;DHT22;7653;48.994;9.212;2023-07-13T09:47:01;24.00;5.50
15105;DHT22;7653;48.994;9.212;2023-07-13T09:49:31;24.10;6.50
15105;DHT22;7653;48.994;9.212;2023-07-13T09:52:06;24.10;6.60
15105;DHT22;7653;48.994;9.212;2023-07-13T09:54:36;24.20;5.80
15105;DHT22;7653;48.994;9.212;2023-07-13T09:57:11;24.50;6.90
15105;DHT22;7653;48.994;9.212;2023-07-13T09:59:41;24.50;5.50
15105;DHT22;7653;48.994;9.212;2023-07-13T10:02:30;24.80;5.40
15105;DHT22;7653;48.994;9.212;2023-07-13T10:05:04;24.70;5.20
15105;DHT22;7653;48.994;9.212;2023-07-13T10:07:31;24.70;4.10
15105;DHT22;7653;48.994;9.212;2023-07-13T10:09:59;24.30;3.90
15105;DHT22;7653;48.994;9.212;2023-07-13T10:12:30;24.30;4.90
15105;DHT22;7653;48.994;9.212;2023-07-13T10:14:58;24.40;4.60
15105;DHT22;7653;48.994;9.212;2023-07-13T10:17:29;24.80;3.80
15105;DHT22;7653;48.994;9.212;2023-07-13T10:20:01;25.00;4.20
15105;DHT22;7653;48.994;9.212;2023-07-13T10:25:23;25.20;4.10
15105;DHT22;7653;48.994;9.212;2023-07-13T10:27:56;25.00;2.80
15105;DHT22;7653;48.994;9.212;2023-07-13T10:30:28;24.60;3.70
15105;DHT22;7653;48.994;9.212;2023-07-13T10:32:58;24.80;3.30
15105;DHT22;7653;48.994;9.212;2023-07-13T10:35:27;25.00;2.80
15105;DHT22;7653;48.994;9.212;2023-07-13T10:40:30;24.90;1.60
15105;DHT22;7653;48.994;9.212;2023-07-13T10:42:59;24.80;2.60
15105;DHT22;7653;48.994;9.212;2023-07-13T10:45:30;24.80;3.40
15105;DHT22;7653;48.994;9.212;2023-07-13T10:47:57;24.80;3.10
15105;DHT22;7653;48.994;9.212;2023-07-13T10:50:25;25.20;3.80
15105;DHT22;7653;48.994;9.212;2023-07-13T10:52:55;25.30;2.40
15105;DHT22;7653;48.994;9.212;2023-07-13T10:55:58;25.30;1.20
15105;DHT22;7653;48.994;9.212;2023-07-13T10:58:36;25.40;1.90
15105;DHT22;7653;48.994;9.212;2023-07-13T11:03:29;25.30;1.00
15105;DHT22;7653;48.994;9.212;2023-07-13T11:06:17;25.60;2.00
15105;DHT22;7653;48.994;9.212;2023-07-13T11:14:03;25.60;1.00
15105;DHT22;7653;48.994;9.212;2023-07-13T11:16:44;25.20;1.10
15105;DHT22;7653;48.994;9.212;2023-07-13T11:22:11;25.40;1.00
15105;DHT22;7653;48.994;9.212;2023-07-13T11:27:45;25.50;1.00
15105;DHT22;7653;48.994;9.212;2023-07-13T11:32:51;25.60;1.10
15105;DHT22;7653;48.994;9.212;2023-07-13T11:35:23;25.40;1.10
15105;DHT22;7653;48.994;9.212;2023-07-13T11:37:52;25.70;1.00
15105;DHT22;7653;48.994;9.212;2023-07-13T11:40:18;25.70;1.00
15105;DHT22;7653;48.994;9.212;2023-07-13T11:42:44;25.40;1.00
15105;DHT22;7653;48.994;9.212;2023-07-13T11:45:22;25.70;1.00
15105;DHT22;7653;48.994;9.212;2023-07-13T11:47:49;25.90;1.00
15105;DHT22;7653;48.994;9.212;2023-07-13T11:50:23;25.60;1.00
15105;DHT22;7653;48.994;9.212;2023-07-13T11:52:50;25.70;1.00
15105;DHT22;7653;48.994;9.212;2023-07-13T11:55:20;25.40;1.00
15105;DHT22;7653;48.994;9.212;2023-07-13T11:57:58;25.30;1.00
15105;DHT22;7653;48.994;9.212;2023-07-13T12:00:32;25.70;1.00
15105;DHT22;7653;48.994;9.212;2023-07-13T12:02:59;25.80;1.00
15105;DHT22;7653;48.994;9.212;2023-07-13T12:05:26;26.10;1.00
15105;DHT22;7653;48.994;9.212;2023-07-13T12:07:52;25.50;1.00
15105;DHT22;7653;48.994;9.212;2023-07-13T12:10:30;25.80;1.00
15105;DHT22;7653;48.994;9.212;2023-07-13T12:15:43;26.10;1.00
15105;DHT22;7653;48.994;9.212;2023-07-13T12:18:13;26.20;1.00
15105;DHT22;7653;48.994;9.212;2023-07-13T12:20:40;26.30;1.00
15105;DHT22;7653;48.994;9.212;2023-07-13T12:23:11;26.80;1.00
15105;DHT22;7653;48.994;9.212;2023-07-13T12:25:40;26.30;1.00
15105;DHT22;7653;48.994;9.212;2023-07-13T12:29:05;26.60;1.00
15105;DHT22;7653;48.994;9.212;2023-07-13T12:33:48;27.10;1.00
15105;DHT22;7653;48.994;9.212;2023-07-13T12:36:21;26.60;1.00
15105;DHT22;7653;48.994;9.212;2023-07-13T12:38:47;26.20;1.00
15105;DHT22;7653;48.994;9.212;2023-07-13T12:41:12;26.60;1.00
15105;DHT22;7653;48.994;9.212;2023-07-13T12:43:40;27.00;1.00
15105;DHT22;7653;48.994;9.212;2023-07-13T12:46:20;26.20;1.00
15105;DHT22;7653;48.994;9.212;2023-07-13T12:48:52;26.80;1.00
15105;DHT22;7653;48.994;9.212;2023-07-13T12:51:22;26.90;1.00
15105;DHT22;7653;48.994;9.212;2023-07-13T12:53:50;26.50;1.00
15105;DHT22;7653;48.994;9.212;2023-07-13T12:56:22;25.80;1.00
15105;DHT22;7653;48.994;9.212;2023-07-13T12:58:49;26.60;1.00
15105;DHT22;7653;48.994;9.212;2023-07-13T13:01:21;26.10;1.00
15105;DHT22;7653;48.994;9.212;2023-07-13T13:03:53;25.90;1.00
15105;DHT22;7653;48.994;9.212;2023-07-13T13:06:28;26.40;1.00
15105;DHT22;7653;48.994;9.212;2023-07-13T13:08:56;26.80;1.00
15105;DHT22;7653;48.994;9.212;2023-07-13T13:11:24;27.20;1.00
15105;DHT22;7653;48.994;9.212;2023-07-13T13:13:52;27.90;1.00
15105;DHT22;7653;48.994;9.212;2023-07-13T13:18:51;26.80;1.00
15105;DHT22;7653;48.994;9.212;2023-07-13T13:21:17;27.50;1.00
15105;DHT22;7653;48.994;9.212;2023-07-13T13:23:44;27.50;1.00
15105;DHT22;7653;48.994;9.212;2023-07-13T13:26:15;27.10;1.00
15105;DHT22;7653;48.994;9.212;2023-07-13T13:28:44;26.90;1.00
15105;DHT22;7653;48.994;9.212;2023-07-13T13:31:11;27.30;1.00
15105;DHT22;7653;48.994;9.212;2023-07-13T13:33:43;27.90;1.00
15105;DHT22;7653;48.994;9.212;2023-07-13T13:36:22;28.70;1.00
15105;DHT22;7653;48.994;9.212;2023-07-13T13:38:49;28.40;1.00
15105;DHT22;7653;48.994;9.212;2023-07-13T13:41:16;27.80;1.00
15105;DHT22;7653;48.994;9.212;2023-07-13T13:43:42;27.80;1.00
15105;DHT22;7653;48.994;9.212;2023-07-13T13:46:22;27.90;1.00
15105;DHT22;7653;48.994;9.212;2023-07-13T13:48:50;27.30;1.00
15105;DHT22;7653;48.994;9.212;2023-07-13T13:51:21;27.60;1.00
15105;DHT22;7653;48.994;9.212;2023-07-13T13:53:48;27.90;1.00
15105;DHT22;7653;48.994;9.212;2023-07-13T13:56:18;28.40;1.00
15105;DHT22;7653;48.994;9.212;2023-07-13T13:58:44;28.40;1.00
15105;DHT22;7653;48.994;9.212;2023-07-13T14:01:17;28.50;1.00
15105;DHT22;7653;48.994;9.212;2023-07-13T14:03:44;29.00;1.00
15105;DHT22;7653;48.994;9.212;2023-07-13T14:06:14;28.80;1.00
15105;DHT22;7653;48.994;9.212;2023-07-13T14:08:41;29.00;1.00
15105;DHT22;7653;48.994;9.212;2023-07-13T14:11:11;28.70;1.00
15105;DHT22;7653;48.994;9.212;2023-07-13T14:13:41;28.30;1.00
15105;DHT22;7653;48.994;9.212;2023-07-13T14:16:17;27.80;1.00
15105;DHT22;7653;48.994;9.212;2023-07-13T14:18:47;27.40;1.00
15105;DHT22;7653;48.994;9.212;2023-07-13T14:21:21;27.50;1.00
15105;DHT22;7653;48.994;9.212;2023-07-13T14:23:47;27.90;1.00
15105;DHT22;7653;48.994;9.212;2023-07-13T14:26:19;27.50;1.00
15105;DHT22;7653;48.994;9.212;2023-07-13T14:28:48;28.00;1.00
15105;DHT22;7653;48.994;9.212;2023-07-13T14:31:15;27.30;1.00
15105;DHT22;7653;48.994;9.212;2023-07-13T14:33:41;28.00;1.00
15105;DHT22;7653;48.994;9.212;2023-07-13T14:38:48;28.40;1.00
15105;DHT22;7653;48.994;9.212;2023-07-13T14:41:14;28.20;1.00
15105;DHT22;7653;48.994;9.212;2023-07-13T14:43:39;28.40;1.00
15105;DHT22;7653;48.994;9.212;2023-07-13T14:46:05;28.70;1.00
15105;DHT22;7653;48.994;9.212;2023-07-13T14:48:31;28.40;1.00
15105;DHT22;7653;48.994;9.212;2023-07-13T14:50:58;28.50;1.00
15105;DHT22;7653;48.994;9.212;2023-07-13T14:53:27;28.70;1.00
15105;DHT22;7653;48.994;9.212;2023-07-13T14:55:53;28.80;1.00
15105;DHT22;7653;48.994;9.212;2023-07-13T14:58:19;27.80;1.00
15105;DHT22;7653;48.994;9.212;2023-07-13T15:00:45;28.00;1.00
15105;DHT22;7653;48.994;9.212;2023-07-13T15:03:23;28.40;1.00
15105;DHT22;7653;48.994;9.212;2023-07-13T15:05:50;27.80;1.00
15105;DHT22;7653;48.994;9.212;2023-07-13T15:08:16;27.50;1.00
15105;DHT22;7653;48.994;9.212;2023-07-13T15:10:42;26.80;1.00
15105;DHT22;7653;48.994;9.212;2023-07-13T15:13:19;28.00;1.00
15105;DHT22;7653;48.994;9.212;2023-07-13T15:15:47;28.20;1.00
15105;DHT22;7653;48.994;9.212;2023-07-13T15:18:15;28.10;1.00
15105;DHT22;7653;48.994;9.212;2023-07-13T15:20:43;28.50;1.00
15105;DHT22;7653;48.994;9.212;2023-07-13T15:23:11;28.30;1.00
15105;DHT22;7653;48.994;9.212;2023-07-13T15:25:37;27.70;1.00
15105;DHT22;7653;48.994;9.212;2023-07-13T15:28:03;26.90;1.00
15105;DHT22;7653;48.994;9.212;2023-07-13T15:30:31;28.50;1.00
15105;DHT22;7653;48.994;9.212;2023-07-13T15:33:05;28.60;1.00
15105;DHT22;7653;48.994;9.212;2023-07-13T15:35:36;28.80;1.00
15105;DHT22;7653;48.994;9.212;2023-07-13T15:38:12;28.20;1.00
15105;DHT22;7653;48.994;9.212;2023-07-13T15:40:38;27.20;1.00
15105;DHT22;7653;48.994;9.212;2023-07-13T15:43:08;26.60;1.00
15105;DHT22;7653;48.994;9.212;2023-07-13T15:45:35;27.30;1.00
15105;DHT22;7653;48.994;9.212;2023-07-13T15:48:00;26.70;1.00
15105;DHT22;7653;48.994;9.212;2023-07-13T15:50:26;27.20;1.00
15105;DHT22;7653;48.994;9.212;2023-07-13T15:52:58;28.40;1.00
15105;DHT22;7653;48.994;9.212;2023-07-13T15:55:24;28.40;1.00
15105;DHT22;7653;48.994;9.212;2023-07-13T15:57:51;27.40;1.00
15105;DHT22;7653;48.994;9.212;2023-07-13T16:02:47;28.20;1.00
15105;DHT22;7653;48.994;9.212;2023-07-13T16:05:13;28.20;1.00
15105;DHT22;7653;48.994;9.212;2023-07-13T16:07:42;27.30;1.00
15105;DHT22;7653;48.994;9.212;2023-07-13T16:10:12;27.40;1.00
15105;DHT22;7653;48.994;9.212;2023-07-13T16:12:39;27.40;1.00
15105;DHT22;7653;48.994;9.212;2023-07-13T16:15:13;27.70;1.00
15105;DHT22;7653;48.994;9.212;2023-07-13T16:17:39;28.10;1.00
15105;DHT22;7653;48.994;9.212;2023-07-13T16:20:07;28.40;1.00
15105;DHT22;7653;48.994;9.212;2023-07-13T16:22:36;28.70;1.00
15105;DHT22;7653;48.994;9.212;2023-07-13T16:25:02;28.10;1.00
15105;DHT22;7653;48.994;9.212;2023-07-13T16:27:33;27.70;1.00
15105;DHT22;7653;48.994;9.212;2023-07-13T16:29:59;27.90;1.00
15105;DHT22;7653;48.994;9.212;2023-07-13T16:32:25;26.80;1.00
15105;DHT22;7653;48.994;9.212;2023-07-13T16:34:51;27.60;1.00
15105;DHT22;7653;48.994;9.212;2023-07-13T16:37:25;26.70;1.00
15105;DHT22;7653;48.994;9.212;2023-07-13T16:39:55;27.10;1.00
15105;DHT22;7653;48.994;9.212;2023-07-13T16:42:23;27.50;1.00
15105;DHT22;7653;48.994;9.212;2023-07-13T16:44:49;27.80;1.00
15105;DHT22;7653;48.994;9.212;2023-07-13T16:47:17;27.50;1.00
15105;DHT22;7653;48.994;9.212;2023-07-13T16:49:44;27.60;1.00
15105;DHT22;7653;48.994;9.212;2023-07-13T16:52:13;26.90;1.00
15105;DHT22;7653;48.994;9.212;2023-07-13T16:54:39;26.80;1.00
15105;DHT22;7653;48.994;9.212;2023-07-13T16:57:17;27.30;1.00
15105;DHT22;7653;48.994;9.212;2023-07-13T16:59:44;27.20;1.00
15105;DHT22;7653;48.994;9.212;2023-07-13T17:02:37;27.20;1.00
15105;DHT22;7653;48.994;9.212;2023-07-13T17:05:10;27.30;1.00
15105;DHT22;7653;48.994;9.212;2023-07-13T17:07:36;27.20;1.00
15105;DHT22;7653;48.994;9.212;2023-07-13T17:10:02;26.40;1.00
15105;DHT22;7653;48.994;9.212;2023-07-13T17:12:28;26.40;1.00
15105;DHT22;7653;48.994;9.212;2023-07-13T17:14:54;26.50;1.00
15105;DHT22;7653;48.994;9.212;2023-07-13T17:17:33;26.70;1.00
15105;DHT22;7653;48.994;9.212;2023-07-13T17:20:02;27.00;1.00
15105;DHT22;7653;48.994;9.212;2023-07-13T17:22:28;26.90;1.00
15105;DHT22;7653;48.994;9.212;2023-07-13T17:24:54;26.70;1.00
15105;DHT22;7653;48.994;9.212;2023-07-13T17:27:20;26.10;1.00
15105;DHT22;7653;48.994;9.212;2023-07-13T17:29:46;25.70;1.00
15105;DHT22;7653;48.994;9.212;2023-07-13T17:32:17;25.90;1.00
15105;DHT22;7653;48.994;9.212;2023-07-13T17:34:44;26.60;1.00
15105;DHT22;7653;48.994;9.212;2023-07-13T17:37:14;26.80;1.00
15105;DHT22;7653;48.994;9.212;2023-07-13T17:39:42;26.40;1.00
15105;DHT22;7653;48.994;9.212;2023-07-13T17:42:12;25.80;1.00
15105;DHT22;7653;48.994;9.212;2023-07-13T17:44:38;26.10;1.00
15105;DHT22;7653;48.994;9.212;2023-07-13T17:47:26;26.20;1.00
15105;DHT22;7653;48.994;9.212;2023-07-13T17:49:51;25.90;1.00
15105;DHT22;7653;48.994;9.212;2023-07-13T17:52:17;26.20;1.00
15105;DHT22;7653;48.994;9.212;2023-07-13T17:54:43;26.70;1.00
15105;DHT22;7653;48.994;9.212;2023-07-13T17:57:09;26.50;1.00
15105;DHT22;7653;48.994;9.212;2023-07-13T17:59:36;26.70;1.00
15105;DHT22;7653;48.994;9.212;2023-07-13T18:02:01;26.40;1.00
15105;DHT22;7653;48.994;9.212;2023-07-13T18:04:27;26.50;1.00
15105;DHT22;7653;48.994;9.212;2023-07-13T18:06:53;26.20;1.00
15105;DHT22;7653;48.994;9.212;2023-07-13T18:09:26;26.20;1.00
15105;DHT22;7653;48.994;9.212;2023-07-13T18:11:53;25.70;1.00
15105;DHT22;7653;48.994;9.212;2023-07-13T18:14:19;25.90;1.00
15105;DHT22;7653;48.994;9.212;2023-07-13T18:16:52;25.80;1.00
15105;DHT22;7653;48.994;9.212;2023-07-13T18:19:44;25.50;1.00
15105;DHT22;7653;48.994;9.212;2023-07-13T18:22:13;24.90;1.00
15105;DHT22;7653;48.994;9.212;2023-07-13T18:24:39;25.40;1.00
15105;DHT22;7653;48.994;9.212;2023-07-13T18:27:05;25.10;1.00
15105;DHT22;7653;48.994;9.212;2023-07-13T18:29:33;25.20;1.00
15105;DHT22;7653;48.994;9.212;2023-07-13T18:31:59;25.20;1.00
15105;DHT22;7653;48.994;9.212;2023-07-13T18:34:38;25.30;1.00
15105;DHT22;7653;48.994;9.212;2023-07-13T18:37:19;25.20;1.00
15105;DHT22;7653;48.994;9.212;2023-07-13T18:39:52;24.80;1.00
15105;DHT22;7653;48.994;9.212;2023-07-13T18:42:18;24.40;1.70
15105;DHT22;7653;48.994;9.212;2023-07-13T18:44:45;24.50;1.70
15105;DHT22;7653;48.994;9.212;2023-07-13T18:47:20;24.30;2.20
15105;DHT22;7653;48.994;9.212;2023-07-13T18:49:48;24.20;2.20
15105;DHT22;7653;48.994;9.212;2023-07-13T18:52:23;23.90;2.00
15105;DHT22;7653;48.994;9.212;2023-07-13T18:54:49;24.10;2.10